Time;durP1;ratioP1;P1;durP2;ratioP2;P2;SDS_P1;SDS_P2;PMS_P1;PMS_P2;Temp;Humidity;BMP_temperature;BMP_pressure;BME280_temperature;BME280_humidity;BME280_pressure;Samples;Min_cycle;Max_cycle;Signal;HPM_P1;HPM_P2
2021/08/23 00:00:00;;;;;;;;;;;;;;;17.47;94.80;101835.72;5069630;28;20416;-45
2021/08/23 00:02:26;;;;;;;;;;;;;;;17.49;94.67;101829.31;5059313;28;19925;-47
2021/08/23 00:04:53;;;;;;;;;;;;;;;17.55;94.79;101839.44;5061153;28;20011;-49
2021/08/23 00:07:20;;;;;;;;;;;;;;;17.47;95.25;101841.88;5061724;28;19925;-48
2021/08/23 00:09:47;;;;;;;;;;;;;;;17.51;94.98;101847.81;5035645;28;19925;-49
2021/08/23 00:12:14;;;;;;;;;;;;;;;17.36;96.24;101845.38;5054201;28;19931;-49
2021/08/23 00:14:40;;;;;;;;;;;;;;;17.36;96.05;101848.03;5058598;28;19925;-51
2021/08/23 00:17:07;;;;;;;;;;;;;;;17.36;95.96;101861.31;5063167;28;19960;-51
2021/08/23 00:19:34;;;;;;;;;;;;;;;17.27;96.68;101858.53;5063048;28;19926;-52
2021/08/23 00:24:49;;;;;;;;;;;;;;;17.17;97.09;101861.06;5057552;28;19924;-51
2021/08/23 00:27:16;;;;;;;;;;;;;;;17.18;96.85;101857.47;5066346;28;20457;-52
2021/08/23 00:29:43;;;;;;;;;;;;;;;17.15;96.62;101869.16;5044700;28;19928;-51
2021/08/23 00:32:10;;;;;;;;;;;;;;;17.14;96.70;101875.44;5061713;28;20372;-51
2021/08/23 00:34:36;;;;;;;;;;;;;;;17.17;96.75;101869.03;5057376;28;20021;-45
2021/08/23 00:37:04;;;;;;;;;;;;;;;17.20;96.26;101872.28;5052375;28;20006;-48
2021/08/23 00:39:31;;;;;;;;;;;;;;;17.16;96.11;101873.50;5036903;28;19990;-44
2021/08/23 00:41:58;;;;;;;;;;;;;;;17.21;95.78;101875.81;5035520;28;19941;-47
2021/08/23 00:44:24;;;;;;;;;;;;;;;17.18;95.95;101881.38;5039448;28;19974;-47
2021/08/23 00:46:51;;;;;;;;;;;;;;;17.18;95.78;101879.56;5068024;28;20496;-49
2021/08/23 00:49:18;;;;;;;;;;;;;;;17.22;95.20;101880.19;5092914;28;19924;-47
2021/08/23 00:51:44;;;;;;;;;;;;;;;17.18;94.98;101884.03;5072027;28;19971;-51
2021/08/23 00:54:11;;;;;;;;;;;;;;;17.19;94.45;101885.69;5052449;28;19932;-53
2021/08/23 00:56:38;;;;;;;;;;;;;;;17.16;94.45;101888.59;5063211;28;19928;-48
2021/08/23 00:59:08;;;;;;;;;;;;;;;17.19;93.92;101897.19;5070829;28;20379;-48
2021/08/23 01:01:41;;;;;;;;;;;;;;;16.99;95.06;101900.53;5056862;28;19924;-53
2021/08/23 01:04:08;;;;;;;;;;;;;;;17.09;95.08;101901.50;5050129;28;19955;-53
2021/08/23 01:06:34;;;;;;;;;;;;;;;17.04;95.16;101907.19;5056206;28;19994;-53
2021/08/23 01:09:04;;;;;;;;;;;;;;;16.83;96.06;101909.59;5067614;28;20508;-52
2021/08/23 01:11:36;;;;;;;;;;;;;;;16.86;96.50;101913.84;5052152;28;19932;-52
2021/08/23 01:14:03;;;;;;;;;;;;;;;16.92;95.96;101909.91;5052998;28;20015;-53
2021/08/23 01:16:29;;;;;;;;;;;;;;;16.87;96.36;101919.03;5044190;28;19963;-51
2021/08/23 01:18:56;;;;;;;;;;;;;;;16.95;96.48;101915.84;5037772;28;19950;-49
2021/08/23 01:21:23;;;;;;;;;;;;;;;17.00;95.88;101924.34;5048371;28;19977;-49
2021/08/23 01:23:49;;;;;;;;;;;;;;;16.96;96.04;101922.00;5053680;28;19931;-53
2021/08/23 01:26:19;;;;;;;;;;;;;;;16.96;95.90;101928.19;5061682;28;19966;-50
2021/08/23 01:28:49;;;;;;;;;;;;;;;17.03;96.00;101929.41;5059791;28;19925;-53
2021/08/23 01:31:20;;;;;;;;;;;;;;;17.04;96.13;101933.75;5074611;28;19931;-50
2021/08/23 01:33:46;;;;;;;;;;;;;;;17.03;95.77;101934.72;5044674;28;19939;-49
2021/08/23 01:36:13;;;;;;;;;;;;;;;17.06;96.03;101938.97;5034463;28;19956;-53
2021/08/23 01:38:40;;;;;;;;;;;;;;;17.06;96.04;101933.66;5035761;28;19925;-53
2021/08/23 01:41:07;;;;;;;;;;;;;;;17.06;95.95;101938.97;5067179;28;19932;-54
2021/08/23 01:43:34;;;;;;;;;;;;;;;17.00;96.67;101939.41;5055605;28;19933;-53
2021/08/23 01:46:01;;;;;;;;;;;;;;;17.05;96.31;101938.09;5055106;28;19924;-49
2021/08/23 01:48:27;;;;;;;;;;;;;;;17.06;96.57;101939.78;5055791;28;19998;-51
2021/08/23 01:50:54;;;;;;;;;;;;;;;17.04;96.97;101941.75;5065383;28;19936;-52
2021/08/23 01:53:21;;;;;;;;;;;;;;;17.10;96.75;101950.19;5070175;28;20394;-51
2021/08/23 01:55:47;;;;;;;;;;;;;;;17.04;96.87;101951.50;5045994;28;20343;-53
2021/08/23 01:58:14;;;;;;;;;;;;;;;17.08;97.00;101950.31;5069846;28;19954;-53
2021/08/23 02:00:41;;;;;;;;;;;;;;;17.09;97.27;101945.84;5060810;28;19925;-52
2021/08/23 02:03:07;;;;;;;;;;;;;;;17.15;97.14;101948.03;5057069;28;19924;-52
2021/08/23 02:05:34;;;;;;;;;;;;;;;17.09;98.09;101954.66;5067646;28;19979;-51
2021/08/23 02:08:01;;;;;;;;;;;;;;;17.02;97.90;101948.13;5056696;28;19925;-47
2021/08/23 02:10:27;;;;;;;;;;;;;;;17.02;98.21;101962.25;5056040;28;20414;-47
2021/08/23 02:12:54;;;;;;;;;;;;;;;17.01;98.48;101962.38;5055531;28;19924;-44
2021/08/23 02:15:21;;;;;;;;;;;;;;;17.02;98.61;101964.91;5066693;28;20367;-46
2021/08/23 02:17:48;;;;;;;;;;;;;;;17.00;98.68;101964.19;5041384;28;19932;-52
2021/08/23 02:20:15;;;;;;;;;;;;;;;16.95;99.34;101966.34;5055515;28;19971;-53
2021/08/23 02:22:42;;;;;;;;;;;;;;;16.98;99.17;101970.56;5067790;28;20335;-53
2021/08/23 02:25:09;;;;;;;;;;;;;;;16.97;99.49;101974.19;5078515;28;19925;-53
2021/08/23 02:27:35;;;;;;;;;;;;;;;16.97;99.31;101975.03;5073573;28;19929;-48
2021/08/23 02:30:02;;;;;;;;;;;;;;;16.98;99.05;101984.69;5074821;28;19925;-48
2021/08/23 02:32:33;;;;;;;;;;;;;;;16.97;99.58;101987.47;5048632;28;19931;-52
2021/08/23 02:35:00;;;;;;;;;;;;;;;16.92;100.00;101994.94;5057568;28;20418;-52
2021/08/23 02:37:27;;;;;;;;;;;;;;;16.95;100.00;101992.91;5064445;28;19925;-49
2021/08/23 02:39:53;;;;;;;;;;;;;;;16.90;100.00;101992.41;5055011;28;19936;-45
2021/08/23 02:42:20;;;;;;;;;;;;;;;16.87;100.00;101997.91;5064470;28;20433;-46
2021/08/23 02:44:46;;;;;;;;;;;;;;;16.96;100.00;101996.41;5068799;28;20264;-48
2021/08/23 02:47:13;;;;;;;;;;;;;;;17.00;99.87;101998.72;5046085;28;20323;-45
2021/08/23 02:49:40;;;;;;;;;;;;;;;16.97;100.00;102000.75;5054779;28;19932;-45
2021/08/23 02:52:06;;;;;;;;;;;;;;;16.98;100.00;102005.13;5040635;28;20426;-48
2021/08/23 02:54:33;;;;;;;;;;;;;;;16.98;100.00;102007.78;5062636;28;20003;-47
2021/08/23 02:56:59;;;;;;;;;;;;;;;17.00;100.00;102008.50;5071909;28;20440;-47
2021/08/23 02:59:26;;;;;;;;;;;;;;;16.94;100.00;102014.28;5050497;28;19947;-43
2021/08/23 03:01:53;;;;;;;;;;;;;;;16.99;100.00;102006.81;5060023;28;19933;-42
2021/08/23 03:04:20;;;;;;;;;;;;;;;16.95;100.00;102003.53;5056503;28;19936;-43
2021/08/23 03:06:46;;;;;;;;;;;;;;;17.04;100.00;102018.81;5062645;28;20060;-47
2021/08/23 03:09:13;;;;;;;;;;;;;;;16.95;99.92;102014.16;5054209;28;19943;-44
2021/08/23 03:11:40;;;;;;;;;;;;;;;16.97;100.00;102014.03;5051635;28;19970;-42
2021/08/23 03:14:06;;;;;;;;;;;;;;;16.92;100.00;102018.84;5068814;28;19924;-43
2021/08/23 03:16:33;;;;;;;;;;;;;;;16.96;100.00;102022.97;5074276;28;19986;-47
2021/08/23 03:19:00;;;;;;;;;;;;;;;16.97;100.00;102024.66;5074076;28;19994;-47
2021/08/23 03:21:26;;;;;;;;;;;;;;;16.97;100.00;102027.34;5073547;28;20353;-45
2021/08/23 03:23:53;;;;;;;;;;;;;;;16.85;99.42;102027.25;5071138;28;19925;-42
2021/08/23 03:26:19;;;;;;;;;;;;;;;16.84;99.91;102035.34;5071756;28;19925;-44
2021/08/23 03:28:46;;;;;;;;;;;;;;;16.79;100.00;102025.03;5073560;28;19925;-43
2021/08/23 03:31:13;;;;;;;;;;;;;;;16.78;99.30;102038.44;5055999;28;19928;-45
2021/08/23 03:33:40;;;;;;;;;;;;;;;16.77;99.56;102034.06;5056380;28;19932;-45
2021/08/23 03:36:06;;;;;;;;;;;;;;;16.76;99.20;102046.50;5071761;28;19936;-44
2021/08/23 03:38:33;;;;;;;;;;;;;;;16.79;99.39;102034.81;5070251;28;19933;-43
2021/08/23 03:41:00;;;;;;;;;;;;;;;16.83;99.15;102039.78;5073397;28;19925;-42
2021/08/23 03:43:26;;;;;;;;;;;;;;;16.81;99.17;102047.03;5073406;28;19931;-42
2021/08/23 03:45:53;;;;;;;;;;;;;;;16.77;99.41;102048.22;5073831;28;20496;-43
2021/08/23 03:48:20;;;;;;;;;;;;;;;16.80;99.04;102039.19;5073361;28;20031;-46
2021/08/23 03:50:46;;;;;;;;;;;;;;;16.76;99.28;102043.00;5073252;28;20387;-51
2021/08/23 03:53:13;;;;;;;;;;;;;;;16.80;99.23;102044.50;5072952;28;20061;-49
2021/08/23 03:55:40;;;;;;;;;;;;;;;16.80;98.91;102047.16;5073176;28;19924;-49
2021/08/23 03:58:06;;;;;;;;;;;;;;;16.78;98.92;102052.53;5073294;28;19966;-49
2021/08/23 04:00:33;;;;;;;;;;;;;;;16.77;98.25;102058.84;5073266;28;20395;-43
2021/08/23 04:03:00;;;;;;;;;;;;;;;16.72;98.75;102064.47;5072913;28;20344;-44
2021/08/23 04:05:26;;;;;;;;;;;;;;;16.72;98.81;102066.28;5055049;28;19925;-45
2021/08/23 04:07:53;;;;;;;;;;;;;;;16.73;98.10;102063.50;5055045;28;19928;-43
2021/08/23 04:10:20;;;;;;;;;;;;;;;16.72;97.84;102066.28;5055467;28;19924;-47
2021/08/23 04:12:47;;;;;;;;;;;;;;;16.63;98.05;102070.44;5073190;28;19966;-44
2021/08/23 04:15:13;;;;;;;;;;;;;;;16.62;98.01;102063.44;5073048;28;19928;-47
2021/08/23 04:17:40;;;;;;;;;;;;;;;16.54;98.00;102081.72;5073120;28;19925;-45
2021/08/23 04:20:07;;;;;;;;;;;;;;;16.44;98.70;102073.53;5073274;28;19931;-45
2021/08/23 04:22:34;;;;;;;;;;;;;;;16.44;98.87;102078.84;5073164;28;19925;-46
2021/08/23 04:25:00;;;;;;;;;;;;;;;16.54;98.67;102084.38;5055101;28;19924;-45
2021/08/23 04:27:27;;;;;;;;;;;;;;;16.45;98.88;102087.69;5072933;28;20276;-45
2021/08/23 04:29:54;;;;;;;;;;;;;;;16.55;98.96;102091.38;5053174;28;20286;-43
2021/08/23 04:32:20;;;;;;;;;;;;;;;16.58;98.39;102093.84;5068650;28;19939;-47
2021/08/23 04:34:47;;;;;;;;;;;;;;;16.51;98.38;102095.19;5072284;28;19925;-43
2021/08/23 04:37:14;;;;;;;;;;;;;;;16.56;98.17;102101.03;5055003;28;20418;-46
2021/08/23 04:39:40;;;;;;;;;;;;;;;16.57;98.75;102102.75;5055056;28;19964;-48
2021/08/23 04:42:07;;;;;;;;;;;;;;;16.58;97.91;102109.75;5072784;28;19924;-43
2021/08/23 04:44:34;;;;;;;;;;;;;;;16.49;98.16;102116.56;5054796;28;19925;-46
2021/08/23 04:47:00;;;;;;;;;;;;;;;16.42;98.52;102114.47;5070052;28;19930;-46
2021/08/23 04:49:27;;;;;;;;;;;;;;;16.48;98.36;102119.31;5069934;28;20043;-44
2021/08/23 04:51:53;;;;;;;;;;;;;;;16.42;97.98;102119.78;5072405;28;19932;-46
2021/08/23 04:54:20;;;;;;;;;;;;;;;16.34;98.18;102128.25;5071668;28;19924;-47
2021/08/23 04:56:47;;;;;;;;;;;;;;;16.41;98.24;102128.69;5069500;28;19958;-46
2021/08/23 04:59:15;;;;;;;;;;;;;;;16.39;97.91;102132.28;5069980;28;19930;-43
2021/08/23 05:01:41;;;;;;;;;;;;;;;16.39;98.05;102139.41;5035643;28;19967;-47
2021/08/23 05:04:08;;;;;;;;;;;;;;;16.31;97.86;102142.59;5069549;28;19931;-43
2021/08/23 05:06:35;;;;;;;;;;;;;;;16.29;98.15;102156.91;5072424;28;19978;-47
2021/08/23 05:09:02;;;;;;;;;;;;;;;16.25;98.32;102150.97;5072440;28;19925;-47
2021/08/23 05:11:29;;;;;;;;;;;;;;;16.27;97.90;102150.88;5037944;28;19924;-47
2021/08/23 05:13:56;;;;;;;;;;;;;;;16.27;97.71;102153.53;5054704;28;19931;-46
2021/08/23 05:16:22;;;;;;;;;;;;;;;16.21;98.20;102160.09;5072392;28;19978;-46
2021/08/23 05:18:49;;;;;;;;;;;;;;;16.26;97.69;102160.63;5068661;28;19935;-50
2021/08/23 05:21:16;;;;;;;;;;;;;;;16.26;97.22;102162.44;5070217;28;19925;-46
2021/08/23 05:23:42;;;;;;;;;;;;;;;16.22;97.45;102167.09;5071205;28;20031;-49
2021/08/23 05:26:09;;;;;;;;;;;;;;;16.11;97.37;102170.47;5069711;28;20402;-49
2021/08/23 05:28:35;;;;;;;;;;;;;;;16.09;97.80;102171.53;5071359;28;20294;-45
2021/08/23 05:31:02;;;;;;;;;;;;;;;16.07;98.11;102176.94;5072200;28;19925;-49
2021/08/23 05:33:29;;;;;;;;;;;;;;;16.19;97.52;102180.59;5068748;28;19924;-50
2021/08/23 05:35:56;;;;;;;;;;;;;;;16.15;97.70;102181.75;5052480;28;20372;-44
2021/08/23 05:38:23;;;;;;;;;;;;;;;16.20;97.68;102177.00;5070573;28;20329;-44
2021/08/23 05:40:49;;;;;;;;;;;;;;;16.24;97.07;102183.78;5068903;28;19925;-44
2021/08/23 05:43:16;;;;;;;;;;;;;;;16.20;96.55;102182.31;5071815;28;19924;-44
2021/08/23 05:45:43;;;;;;;;;;;;;;;16.22;96.94;102188.34;5075907;28;19929;-44
2021/08/23 05:48:10;;;;;;;;;;;;;;;16.21;96.46;102199.91;5075949;28;19928;-44
2021/08/23 05:50:36;;;;;;;;;;;;;;;16.18;96.54;102197.47;5075876;28;19929;-43
2021/08/23 05:53:03;;;;;;;;;;;;;;;16.18;96.25;102198.31;5075847;28;20463;-44
2021/08/23 05:55:30;;;;;;;;;;;;;;;16.21;96.15;102207.84;5058076;28;19982;-47
2021/08/23 05:57:56;;;;;;;;;;;;;;;16.25;94.62;102198.75;5071483;28;19928;-49
2021/08/23 06:00:23;;;;;;;;;;;;;;;16.27;94.71;102199.50;5072451;28;20489;-49
2021/08/23 06:02:50;;;;;;;;;;;;;;;16.34;95.18;102208.72;5075516;28;19990;-47
2021/08/23 06:05:16;;;;;;;;;;;;;;;16.31;95.14;102208.94;5075814;28;19970;-46
2021/08/23 06:07:43;;;;;;;;;;;;;;;16.26;94.48;102219.03;5058111;28;20399;-46
2021/08/23 06:10:11;;;;;;;;;;;;;;;16.33;95.12;102211.50;5075209;28;19929;-45
2021/08/23 06:12:37;;;;;;;;;;;;;;;16.36;94.51;102208.63;5057416;28;20023;-46
2021/08/23 06:15:04;;;;;;;;;;;;;;;16.27;94.31;102222.53;5075243;28;19955;-47
2021/08/23 06:17:31;;;;;;;;;;;;;;;16.30;93.80;102228.47;5075376;28;20007;-46
2021/08/23 06:19:57;;;;;;;;;;;;;;;16.34;93.61;102219.34;5075361;28;20379;-46
2021/08/23 06:22:24;;;;;;;;;;;;;;;16.43;93.79;102219.69;5073741;28;19924;-46
2021/08/23 06:24:51;;;;;;;;;;;;;;;16.42;94.16;102218.84;5037472;28;20383;-44
2021/08/23 06:27:19;;;;;;;;;;;;;;;16.39;93.83;102219.06;5057304;28;19924;-42
2021/08/23 06:29:45;;;;;;;;;;;;;;;16.45;93.65;102220.44;5074864;28;20002;-45
2021/08/23 06:32:12;;;;;;;;;;;;;;;16.49;93.47;102230.72;5053945;28;19932;-44
2021/08/23 06:34:38;;;;;;;;;;;;;;;16.43;93.37;102219.69;5073209;28;20352;-47
2021/08/23 06:37:05;;;;;;;;;;;;;;;16.49;93.38;102224.59;5075041;28;19974;-45
2021/08/23 06:39:32;;;;;;;;;;;;;;;16.52;93.41;102227.03;5074766;28;20015;-44
2021/08/23 06:41:58;;;;;;;;;;;;;;;16.48;92.73;102234.34;5072443;28;19931;-48
2021/08/23 06:44:25;;;;;;;;;;;;;;;16.62;92.53;102238.72;5070604;28;20128;-45
2021/08/23 06:46:53;;;;;;;;;;;;;;;16.71;92.06;102246.06;5074860;28;19924;-48
2021/08/23 06:49:19;;;;;;;;;;;;;;;16.78;92.22;102235.84;5073301;28;19974;-52
2021/08/23 06:51:46;;;;;;;;;;;;;;;16.95;91.67;102242.69;5071803;28;19994;-55
2021/08/23 06:54:16;;;;;;;;;;;;;;;17.10;91.77;102232.78;5074481;28;20019;-46
2021/08/23 06:56:43;;;;;;;;;;;;;;;17.09;90.31;102241.69;5071836;28;19924;-46
2021/08/23 06:59:10;;;;;;;;;;;;;;;17.10;90.10;102243.41;5070262;28;19928;-46
2021/08/23 07:01:37;;;;;;;;;;;;;;;17.14;90.17;102241.34;5073979;28;19924;-48
2021/08/23 07:04:04;;;;;;;;;;;;;;;17.17;89.34;102241.16;5074133;28;19924;-45
2021/08/23 07:06:31;;;;;;;;;;;;;;;17.29;88.75;102244.72;5074351;28;19932;-44
2021/08/23 07:08:57;;;;;;;;;;;;;;;17.33;88.08;102249.72;5074584;28;19924;-44
2021/08/23 07:11:24;;;;;;;;;;;;;;;17.51;88.62;102244.06;5074322;28;19932;-44
2021/08/23 07:13:51;;;;;;;;;;;;;;;17.61;87.07;102244.22;5073211;28;19964;-47
2021/08/23 07:16:17;;;;;;;;;;;;;;;17.66;86.52;102244.75;5054191;28;20353;-47
2021/08/23 07:18:44;;;;;;;;;;;;;;;17.63;85.29;102242.28;5072299;28;19924;-48
2021/08/23 07:21:11;;;;;;;;;;;;;;;17.65;85.46;102248.34;5074118;28;19982;-44
2021/08/23 07:23:37;;;;;;;;;;;;;;;17.79;85.68;102250.00;5074065;28;19924;-45
2021/08/23 07:26:04;;;;;;;;;;;;;;;17.94;86.25;102259.53;5073938;28;19924;-43
2021/08/23 07:28:31;;;;;;;;;;;;;;;17.98;85.05;102261.00;5073412;28;20287;-43
2021/08/23 07:30:57;;;;;;;;;;;;;;;18.08;83.79;102261.19;5071357;28;19925;-45
2021/08/23 07:33:24;;;;;;;;;;;;;;;18.06;83.07;102250.66;5072163;28;20295;-45
2021/08/23 07:35:51;;;;;;;;;;;;;;;18.22;83.38;102254.81;5074292;28;19931;-42
2021/08/23 07:38:18;;;;;;;;;;;;;;;18.35;83.30;102268.03;5073659;28;19982;-45
2021/08/23 07:40:44;;;;;;;;;;;;;;;18.47;81.08;102271.59;5073965;28;19975;-45
2021/08/23 07:43:11;;;;;;;;;;;;;;;18.50;81.00;102271.34;5073525;28;19925;-45
2021/08/23 07:45:38;;;;;;;;;;;;;;;18.63;81.34;102271.28;5071342;28;19982;-44
2021/08/23 07:48:05;;;;;;;;;;;;;;;18.94;80.51;102280.44;5073669;28;19929;-45
2021/08/23 07:50:32;;;;;;;;;;;;;;;19.16;80.09;102276.91;5071109;28;19928;-45
2021/08/23 07:52:58;;;;;;;;;;;;;;;19.16;79.47;102278.75;5070260;28;19978;-44
2021/08/23 07:55:25;;;;;;;;;;;;;;;19.19;78.17;102275.81;5073388;28;19936;-44
2021/08/23 07:57:52;;;;;;;;;;;;;;;19.29;78.29;102283.94;5073442;28;19924;-44
2021/08/23 08:00:20;;;;;;;;;;;;;;;19.20;77.32;102278.38;5055603;28;20383;-45
2021/08/23 08:02:47;;;;;;;;;;;;;;;19.24;77.78;102282.47;5072868;28;20023;-49
2021/08/23 08:05:13;;;;;;;;;;;;;;;19.25;77.56;102288.66;5055449;28;19994;-47
2021/08/23 08:07:40;;;;;;;;;;;;;;;19.34;76.95;102285.25;5055286;28;19966;-48
2021/08/23 08:10:07;;;;;;;;;;;;;;;19.53;75.33;102283.78;5073183;28;19939;-46
2021/08/23 08:12:34;;;;;;;;;;;;;;;19.69;76.69;102292.25;5054433;28;19924;-46
2021/08/23 08:15:01;;;;;;;;;;;;;;;19.79;75.52;102295.00;5068483;28;19928;-45
2021/08/23 08:17:28;;;;;;;;;;;;;;;19.70;75.62;102293.09;5054341;28;19978;-48
2021/08/23 08:19:54;;;;;;;;;;;;;;;19.76;74.48;102298.78;5072978;28;19989;-49
2021/08/23 08:22:21;;;;;;;;;;;;;;;19.83;75.00;102298.31;5072846;28;20387;-54
2021/08/23 08:24:48;;;;;;;;;;;;;;;19.75;73.53;102301.56;5055281;28;19974;-54
2021/08/23 08:27:14;;;;;;;;;;;;;;;19.98;73.60;102302.38;5072969;28;19930;-54
2021/08/23 08:29:41;;;;;;;;;;;;;;;20.13;73.84;102305.59;5073282;28;19928;-54
2021/08/23 08:32:08;;;;;;;;;;;;;;;20.27;72.76;102304.44;5055202;28;19924;-54
2021/08/23 08:34:35;;;;;;;;;;;;;;;20.16;73.24;102307.19;5055020;28;19924;-52
2021/08/23 08:37:01;;;;;;;;;;;;;;;20.00;72.08;102312.94;5072843;28;19950;-55
2021/08/23 08:39:28;;;;;;;;;;;;;;;19.99;72.52;102303.22;5072819;28;20264;-53
2021/08/23 08:41:55;;;;;;;;;;;;;;;20.18;73.47;102314.09;5072725;28;20276;-53
2021/08/23 08:44:21;;;;;;;;;;;;;;;20.14;72.36;102318.00;5072453;28;20011;-53
2021/08/23 08:46:48;;;;;;;;;;;;;;;20.40;72.48;102315.81;5072774;28;19928;-54
2021/08/23 08:49:15;;;;;;;;;;;;;;;20.50;71.12;102321.22;5054768;28;19964;-54
2021/08/23 08:51:41;;;;;;;;;;;;;;;20.60;70.52;102318.59;5054393;28;20123;-54
2021/08/23 08:54:08;;;;;;;;;;;;;;;20.62;70.88;102322.00;5069028;28;19928;-53
2021/08/23 08:56:35;;;;;;;;;;;;;;;20.61;70.64;102325.66;5070954;28;19924;-55
2021/08/23 08:59:01;;;;;;;;;;;;;;;20.60;69.75;102330.16;5072446;28;19990;-55
2021/08/23 09:01:28;;;;;;;;;;;;;;;20.59;68.82;102328.47;5072497;28;19924;-54
2021/08/23 09:03:59;;;;;;;;;;;;;;;20.49;68.80;102330.22;5072239;28;19928;-48
2021/08/23 09:06:26;;;;;;;;;;;;;;;20.58;69.44;102334.78;5071814;28;19928;-49
2021/08/23 09:08:52;;;;;;;;;;;;;;;20.53;69.54;102329.00;5051095;28;20375;-54
2021/08/23 09:11:19;;;;;;;;;;;;;;;20.39;70.02;102331.97;5053564;28;19931;-53
2021/08/23 09:13:56;;;;;;;;;;;;;;;20.44;70.83;102335.94;5072238;28;19932;-54
2021/08/23 09:16:26;;;;;;;;;;;;;;;20.64;70.83;102336.06;5072158;28;19931;-54
2021/08/23 09:18:53;;;;;;;;;;;;;;;20.62;69.41;102327.34;5070478;28;19924;-53
2021/08/23 09:21:26;;;;;;;;;;;;;;;20.64;69.71;102341.41;5074710;28;19974;-54
2021/08/23 09:23:57;;;;;;;;;;;;;;;20.75;70.11;102338.75;5076298;28;19924;-54
2021/08/23 09:26:24;;;;;;;;;;;;;;;20.82;70.42;102336.38;5076170;28;19931;-53
2021/08/23 09:28:58;;;;;;;;;;;;;;;20.87;69.78;102344.84;5042124;28;19984;-55
2021/08/23 09:31:29;;;;;;;;;;;;;;;20.77;68.35;102341.28;5058320;28;19928;-53
2021/08/23 09:33:57;;;;;;;;;;;;;;;20.97;68.79;102339.56;5076063;28;19950;-51
2021/08/23 09:36:24;;;;;;;;;;;;;;;20.96;69.00;102340.53;5076172;28;19924;-44
2021/08/23 09:39:01;;;;;;;;;;;;;;;21.02;68.97;102340.00;5041377;28;19924;-47
2021/08/23 09:41:36;;;;;;;;;;;;;;;21.08;68.58;102347.50;5075125;28;20399;-46
2021/08/23 09:44:09;;;;;;;;;;;;;;;21.06;67.40;102346.78;5071361;28;19924;-45
2021/08/23 09:46:36;;;;;;;;;;;;;;;21.42;65.67;102336.53;5074491;28;19966;-44
2021/08/23 09:49:04;;;;;;;;;;;;;;;21.60;66.63;102338.59;5058182;28;20020;-44
2021/08/23 09:51:36;;;;;;;;;;;;;;;21.69;66.18;102336.91;5075097;28;20387;-48
2021/08/23 09:54:06;;;;;;;;;;;;;;;21.94;66.71;102339.09;5075137;28;19931;-48
2021/08/23 09:56:35;;;;;;;;;;;;;;;21.79;64.70;102343.16;5056911;28;19928;-49
2021/08/23 09:59:02;;;;;;;;;;;;;;;21.97;64.90;102350.50;5071214;28;19925;-49
2021/08/23 10:01:30;;;;;;;;;;;;;;;22.28;64.30;102343.22;5056407;28;19931;-47
2021/08/23 10:03:58;;;;;;;;;;;;;;;22.29;61.55;102343.06;5057857;28;19924;-46
2021/08/23 10:06:24;;;;;;;;;;;;;;;22.56;61.93;102346.88;5075588;28;19962;-47
2021/08/23 10:08:51;;;;;;;;;;;;;;;22.57;62.44;102342.38;5075652;28;19928;-49
2021/08/23 10:11:18;;;;;;;;;;;;;;;22.66;63.39;102344.19;5075249;28;19925;-47
2021/08/23 10:13:44;;;;;;;;;;;;;;;22.54;62.27;102348.03;5075228;28;19928;-51
2021/08/23 10:16:11;;;;;;;;;;;;;;;22.58;63.28;102341.38;5055796;28;20345;-55
2021/08/23 10:18:39;;;;;;;;;;;;;;;22.58;62.41;102346.75;5071553;28;19924;-53
2021/08/23 10:21:07;;;;;;;;;;;;;;;22.81;62.95;102349.09;5074215;28;20337;-54
2021/08/23 10:23:36;;;;;;;;;;;;;;;23.16;61.58;102340.41;5057330;28;19932;-52
2021/08/23 10:26:02;;;;;;;;;;;;;;;23.38;59.39;102343.72;5057078;28;19924;-54
2021/08/23 10:28:36;;;;;;;;;;;;;;;23.63;57.65;102350.22;5053901;28;19928;-52
2021/08/23 10:31:07;;;;;;;;;;;;;;;23.94;59.69;102350.78;5070476;28;20394;-53
2021/08/23 10:33:35;;;;;;;;;;;;;;;24.29;56.45;102343.69;5074465;28;19928;-53
2021/08/23 10:36:02;;;;;;;;;;;;;;;24.47;54.86;102345.53;5074150;28;20333;-54
2021/08/23 10:38:29;;;;;;;;;;;;;;;24.70;54.94;102355.81;5053810;28;19928;-53
2021/08/23 10:41:14;;;;;;;;;;;;;;;24.64;55.80;102352.75;5073774;28;19924;-53
2021/08/23 10:43:42;;;;;;;;;;;;;;;25.01;55.44;102345.44;5053448;28;19974;-55
2021/08/23 10:46:22;;;;;;;;;;;;;;;25.38;53.88;102355.06;5054321;28;20405;-52
2021/08/23 10:48:49;;;;;;;;;;;;;;;25.37;51.98;102349.84;5074691;28;19925;-55
2021/08/23 10:51:38;;;;;;;;;;;;;;;25.13;52.12;102357.59;5057029;28;19974;-54
2021/08/23 10:54:23;;;;;;;;;;;;;;;24.95;51.23;102351.44;5072613;28;19925;-55
2021/08/23 10:56:58;;;;;;;;;;;;;;;25.03;50.45;102356.88;5056195;28;19924;-53
2021/08/23 10:59:36;;;;;;;;;;;;;;;24.84;51.64;102349.03;5074473;28;20019;-53
2021/08/23 11:02:02;;;;;;;;;;;;;;;24.78;50.93;102355.88;5074707;28;19946;-54
2021/08/23 11:04:38;;;;;;;;;;;;;;;25.13;51.50;102354.91;5074255;28;19967;-54
2021/08/23 11:07:06;;;;;;;;;;;;;;;25.42;50.83;102344.81;5056998;28;19970;-54
2021/08/23 11:09:38;;;;;;;;;;;;;;;25.75;49.67;102340.38;5074436;28;19986;-53
2021/08/23 11:12:08;;;;;;;;;;;;;;;25.37;50.22;102334.50;5057096;28;20318;-52
2021/08/23 11:14:51;;;;;;;;;;;;;;;25.37;50.51;102347.16;5056265;28;19924;-54
2021/08/23 11:17:28;;;;;;;;;;;;;;;25.20;50.53;102354.28;5053207;28;19928;-53
2021/08/23 11:19:55;;;;;;;;;;;;;;;25.23;50.07;102360.16;5054350;28;19925;-54
2021/08/23 11:22:22;;;;;;;;;;;;;;;25.29;50.70;102353.28;5056637;28;19966;-53
2021/08/23 11:24:49;;;;;;;;;;;;;;;25.74;51.54;102346.78;5074001;28;19977;-52
2021/08/23 11:27:16;;;;;;;;;;;;;;;26.23;50.47;102350.56;5056427;28;20485;-54
2021/08/23 11:29:53;;;;;;;;;;;;;;;26.39;47.98;102347.88;5074070;28;19964;-53
2021/08/23 11:32:24;;;;;;;;;;;;;;;26.02;48.05;102349.22;5056227;28;20380;-54
2021/08/23 11:34:51;;;;;;;;;;;;;;;26.40;47.37;102343.34;5074009;28;19924;-55
2021/08/23 11:37:20;;;;;;;;;;;;;;;26.33;48.38;102337.78;5073698;28;19947;-52
2021/08/23 11:39:47;;;;;;;;;;;;;;;26.11;48.98;102339.28;5073736;28;19928;-53
2021/08/23 11:42:15;;;;;;;;;;;;;;;26.22;48.50;102338.97;5073368;28;19970;-52
2021/08/23 11:44:47;;;;;;;;;;;;;;;26.10;47.36;102338.44;5073309;28;19932;-53
2021/08/23 11:47:13;;;;;;;;;;;;;;;26.23;47.71;102337.97;5054080;28;19990;-52
2021/08/23 11:49:40;;;;;;;;;;;;;;;26.67;46.25;102339.44;5070465;28;19933;-53
2021/08/23 11:52:13;;;;;;;;;;;;;;;26.74;46.60;102331.53;5072146;28;20291;-53
2021/08/23 11:54:40;;;;;;;;;;;;;;;27.31;46.46;102334.06;5038965;28;19955;-53
2021/08/23 11:57:07;;;;;;;;;;;;;;;27.24;46.23;102337.63;5073277;28;20398;-50
2021/08/23 11:59:34;;;;;;;;;;;;;;;27.14;47.96;102337.84;5055556;28;20292;-55
2021/08/23 12:02:10;;;;;;;;;;;;;;;27.29;45.37;102343.34;5073725;28;19951;-53
2021/08/23 12:04:38;;;;;;;;;;;;;;;27.55;43.88;102336.84;5073212;28;19932;-54
2021/08/23 12:07:05;;;;;;;;;;;;;;;27.93;43.83;102339.66;5039200;28;19964;-54
2021/08/23 12:09:32;;;;;;;;;;;;;;;27.37;43.88;102334.41;5073200;28;19935;-53
2021/08/23 12:11:59;;;;;;;;;;;;;;;27.29;45.17;102338.78;5073110;28;20363;-55
2021/08/23 12:14:28;;;;;;;;;;;;;;;26.95;44.38;102339.06;5054092;28;19928;-54
2021/08/23 12:16:56;;;;;;;;;;;;;;;26.34;46.20;102342.16;5070033;28;19974;-54
2021/08/23 12:19:23;;;;;;;;;;;;;;;26.49;46.41;102343.16;5072239;28;20394;-53
2021/08/23 12:21:50;;;;;;;;;;;;;;;26.84;46.12;102347.53;5072910;28;19977;-48
2021/08/23 12:24:18;;;;;;;;;;;;;;;27.10;44.98;102337.31;5054775;28;20100;-50
2021/08/23 12:26:58;;;;;;;;;;;;;;;26.94;44.61;102340.94;5069930;28;19924;-48
2021/08/23 12:29:34;;;;;;;;;;;;;;;26.88;46.13;102346.19;5070039;28;20023;-50
2021/08/23 12:32:08;;;;;;;;;;;;;;;26.74;46.27;102353.97;5072393;28;20018;-48
2021/08/23 12:34:38;;;;;;;;;;;;;;;26.02;47.04;102349.22;5072441;28;19946;-48
2021/08/23 12:37:05;;;;;;;;;;;;;;;25.92;47.99;102357.44;5072848;28;19932;-51
2021/08/23 12:39:32;;;;;;;;;;;;;;;26.46;45.39;102346.22;5072765;28;19978;-51